sensor_id;sensor_type;location;lat;lon;timestamp;temperature;humidity
22130;DHT22;11231;50.746;4.272;2024-03-08T00:02:17;6.80;99.90
22130;DHT22;11231;50.746;4.272;2024-03-08T00:04:43;6.90;99.90
22130;DHT22;11231;50.746;4.272;2024-03-08T00:07:10;6.90;99.90
22130;DHT22;11231;50.746;4.272;2024-03-08T00:09:36;6.90;99.90
22130;DHT22;11231;50.746;4.272;2024-03-08T00:12:02;6.90;99.90
22130;DHT22;11231;50.746;4.272;2024-03-08T00:14:27;6.90;99.90
22130;DHT22;11231;50.746;4.272;2024-03-08T00:16:53;6.90;99.90
22130;DHT22;11231;50.746;4.272;2024-03-08T00:19:19;6.80;99.90
22130;DHT22;11231;50.746;4.272;2024-03-08T00:21:45;6.80;99.90
22130;DHT22;11231;50.746;4.272;2024-03-08T00:24:11;6.70;99.90
22130;DHT22;11231;50.746;4.272;2024-03-08T00:26:37;6.70;99.90
22130;DHT22;11231;50.746;4.272;2024-03-08T00:29:03;6.60;99.90
22130;DHT22;11231;50.746;4.272;2024-03-08T00:31:29;6.60;99.90
22130;DHT22;11231;50.746;4.272;2024-03-08T00:33:56;6.70;99.90
22130;DHT22;11231;50.746;4.272;2024-03-08T00:36:23;6.70;99.90
22130;DHT22;11231;50.746;4.272;2024-03-08T00:38:48;6.70;99.90
22130;DHT22;11231;50.746;4.272;2024-03-08T00:41:14;6.60;99.90
22130;DHT22;11231;50.746;4.272;2024-03-08T00:43:40;6.60;99.90
22130;DHT22;11231;50.746;4.272;2024-03-08T00:46:05;6.50;99.90
22130;DHT22;11231;50.746;4.272;2024-03-08T00:48:31;6.60;99.90
22130;DHT22;11231;50.746;4.272;2024-03-08T00:50:57;6.50;99.90
22130;DHT22;11231;50.746;4.272;2024-03-08T00:53:23;6.50;99.90
22130;DHT22;11231;50.746;4.272;2024-03-08T00:55:48;6.60;99.90
22130;DHT22;11231;50.746;4.272;2024-03-08T00:58:15;6.50;99.90
22130;DHT22;11231;50.746;4.272;2024-03-08T01:00:40;6.40;99.90
22130;DHT22;11231;50.746;4.272;2024-03-08T01:03:07;6.40;99.90
22130;DHT22;11231;50.746;4.272;2024-03-08T01:05:33;6.40;99.90
22130;DHT22;11231;50.746;4.272;2024-03-08T01:08:00;6.40;99.90
22130;DHT22;11231;50.746;4.272;2024-03-08T01:10:28;6.40;99.90
22130;DHT22;11231;50.746;4.272;2024-03-08T01:12:54;6.30;99.90
22130;DHT22;11231;50.746;4.272;2024-03-08T01:15:23;6.30;99.90
22130;DHT22;11231;50.746;4.272;2024-03-08T01:17:48;6.30;99.90
22130;DHT22;11231;50.746;4.272;2024-03-08T01:20:15;6.30;99.90
22130;DHT22;11231;50.746;4.272;2024-03-08T01:22:41;6.30;99.90
22130;DHT22;11231;50.746;4.272;2024-03-08T01:25:07;6.30;99.90
22130;DHT22;11231;50.746;4.272;2024-03-08T01:27:34;6.20;99.90
22130;DHT22;11231;50.746;4.272;2024-03-08T01:30:01;6.20;99.90
22130;DHT22;11231;50.746;4.272;2024-03-08T01:32:27;6.20;99.90
22130;DHT22;11231;50.746;4.272;2024-03-08T01:34:53;6.20;99.90
22130;DHT22;11231;50.746;4.272;2024-03-08T01:37:18;6.20;99.90
22130;DHT22;11231;50.746;4.272;2024-03-08T01:39:45;6.20;99.90
22130;DHT22;11231;50.746;4.272;2024-03-08T01:42:11;6.20;99.90
22130;DHT22;11231;50.746;4.272;2024-03-08T01:44:38;6.20;99.90
22130;DHT22;11231;50.746;4.272;2024-03-08T01:47:05;6.20;99.90
22130;DHT22;11231;50.746;4.272;2024-03-08T01:49:31;6.10;99.90
22130;DHT22;11231;50.746;4.272;2024-03-08T01:51:57;6.10;99.90
22130;DHT22;11231;50.746;4.272;2024-03-08T01:54:22;6.00;99.90
22130;DHT22;11231;50.746;4.272;2024-03-08T01:56:50;6.00;99.90
22130;DHT22;11231;50.746;4.272;2024-03-08T01:59:16;5.90;99.90
22130;DHT22;11231;50.746;4.272;2024-03-08T02:01:42;6.00;99.90
22130;DHT22;11231;50.746;4.272;2024-03-08T02:04:08;6.00;99.90
22130;DHT22;11231;50.746;4.272;2024-03-08T02:06:34;6.00;99.90
22130;DHT22;11231;50.746;4.272;2024-03-08T02:09:00;5.90;99.90
22130;DHT22;11231;50.746;4.272;2024-03-08T02:11:33;5.90;99.90
22130;DHT22;11231;50.746;4.272;2024-03-08T02:13:59;5.90;99.90
22130;DHT22;11231;50.746;4.272;2024-03-08T02:16:25;5.80;99.90
22130;DHT22;11231;50.746;4.272;2024-03-08T02:18:51;5.80;99.90
22130;DHT22;11231;50.746;4.272;2024-03-08T02:21:17;5.80;99.90
22130;DHT22;11231;50.746;4.272;2024-03-08T02:23:46;5.80;99.90
22130;DHT22;11231;50.746;4.272;2024-03-08T02:26:12;5.80;99.90
22130;DHT22;11231;50.746;4.272;2024-03-08T02:28:38;5.80;99.90
22130;DHT22;11231;50.746;4.272;2024-03-08T02:31:05;5.70;99.90
22130;DHT22;11231;50.746;4.272;2024-03-08T02:33:33;5.70;99.90
22130;DHT22;11231;50.746;4.272;2024-03-08T02:35:59;5.70;99.90
22130;DHT22;11231;50.746;4.272;2024-03-08T02:38:26;5.60;99.90
22130;DHT22;11231;50.746;4.272;2024-03-08T02:40:52;5.60;99.90
22130;DHT22;11231;50.746;4.272;2024-03-08T02:43:19;5.60;99.90
22130;DHT22;11231;50.746;4.272;2024-03-08T02:45:45;5.60;99.90
22130;DHT22;11231;50.746;4.272;2024-03-08T02:48:12;5.60;99.90
22130;DHT22;11231;50.746;4.272;2024-03-08T02:50:38;5.60;99.90
22130;DHT22;11231;50.746;4.272;2024-03-08T02:53:11;5.50;99.90
22130;DHT22;11231;50.746;4.272;2024-03-08T02:55:38;5.50;99.90
22130;DHT22;11231;50.746;4.272;2024-03-08T02:58:05;5.40;99.90
22130;DHT22;11231;50.746;4.272;2024-03-08T03:00:30;5.40;99.90
22130;DHT22;11231;50.746;4.272;2024-03-08T03:02:57;5.40;99.90
22130;DHT22;11231;50.746;4.272;2024-03-08T03:05:23;5.40;99.90
22130;DHT22;11231;50.746;4.272;2024-03-08T03:07:50;5.40;99.90
22130;DHT22;11231;50.746;4.272;2024-03-08T03:10:17;5.30;99.90
22130;DHT22;11231;50.746;4.272;2024-03-08T03:12:44;5.30;99.90
22130;DHT22;11231;50.746;4.272;2024-03-08T03:15:13;5.20;99.90
22130;DHT22;11231;50.746;4.272;2024-03-08T03:17:39;5.30;99.90
22130;DHT22;11231;50.746;4.272;2024-03-08T03:20:09;5.20;99.90
22130;DHT22;11231;50.746;4.272;2024-03-08T03:22:36;5.20;99.90
22130;DHT22;11231;50.746;4.272;2024-03-08T03:25:03;5.10;99.90
22130;DHT22;11231;50.746;4.272;2024-03-08T03:27:30;5.10;99.90
22130;DHT22;11231;50.746;4.272;2024-03-08T03:29:56;5.10;99.90
22130;DHT22;11231;50.746;4.272;2024-03-08T03:32:23;5.10;99.90
22130;DHT22;11231;50.746;4.272;2024-03-08T03:34:49;5.10;99.90
22130;DHT22;11231;50.746;4.272;2024-03-08T03:37:19;5.10;99.90
22130;DHT22;11231;50.746;4.272;2024-03-08T03:39:45;5.10;99.90
22130;DHT22;11231;50.746;4.272;2024-03-08T03:42:18;5.00;99.90
22130;DHT22;11231;50.746;4.272;2024-03-08T03:44:47;5.10;99.90
22130;DHT22;11231;50.746;4.272;2024-03-08T03:47:14;5.10;99.90
22130;DHT22;11231;50.746;4.272;2024-03-08T03:49:42;5.00;99.90
22130;DHT22;11231;50.746;4.272;2024-03-08T03:52:09;5.00;99.90
22130;DHT22;11231;50.746;4.272;2024-03-08T03:54:35;5.00;99.90
22130;DHT22;11231;50.746;4.272;2024-03-08T03:57:00;5.00;99.90
22130;DHT22;11231;50.746;4.272;2024-03-08T03:59:26;5.00;99.90
22130;DHT22;11231;50.746;4.272;2024-03-08T04:01:53;5.00;99.90
22130;DHT22;11231;50.746;4.272;2024-03-08T04:04:20;5.00;99.90
22130;DHT22;11231;50.746;4.272;2024-03-08T04:06:46;5.00;99.90
22130;DHT22;11231;50.746;4.272;2024-03-08T04:09:12;5.00;99.90
22130;DHT22;11231;50.746;4.272;2024-03-08T04:11:38;5.00;99.90
22130;DHT22;11231;50.746;4.272;2024-03-08T04:14:04;4.90;99.90
22130;DHT22;11231;50.746;4.272;2024-03-08T04:16:31;5.00;99.90
22130;DHT22;11231;50.746;4.272;2024-03-08T04:18:58;4.90;99.90
22130;DHT22;11231;50.746;4.272;2024-03-08T04:21:24;4.90;99.90
22130;DHT22;11231;50.746;4.272;2024-03-08T04:23:50;4.90;99.90
22130;DHT22;11231;50.746;4.272;2024-03-08T04:26:15;4.90;99.90
22130;DHT22;11231;50.746;4.272;2024-03-08T04:28:41;4.90;99.90
22130;DHT22;11231;50.746;4.272;2024-03-08T04:31:07;4.80;99.90
22130;DHT22;11231;50.746;4.272;2024-03-08T04:33:33;4.80;99.90
22130;DHT22;11231;50.746;4.272;2024-03-08T04:36:01;4.80;99.90
22130;DHT22;11231;50.746;4.272;2024-03-08T04:38:30;4.80;99.90
22130;DHT22;11231;50.746;4.272;2024-03-08T04:40:57;4.70;99.90
22130;DHT22;11231;50.746;4.272;2024-03-08T04:43:23;4.70;99.90
22130;DHT22;11231;50.746;4.272;2024-03-08T04:45:52;4.70;99.90
22130;DHT22;11231;50.746;4.272;2024-03-08T04:48:19;4.70;99.90
22130;DHT22;11231;50.746;4.272;2024-03-08T04:50:46;4.80;99.90
22130;DHT22;11231;50.746;4.272;2024-03-08T04:53:12;4.70;99.90
22130;DHT22;11231;50.746;4.272;2024-03-08T04:55:37;4.70;99.90
22130;DHT22;11231;50.746;4.272;2024-03-08T04:58:03;4.60;99.90
22130;DHT22;11231;50.746;4.272;2024-03-08T05:00:32;4.60;99.90
22130;DHT22;11231;50.746;4.272;2024-03-08T05:02:58;4.60;99.90
22130;DHT22;11231;50.746;4.272;2024-03-08T05:05:24;4.50;99.90
22130;DHT22;11231;50.746;4.272;2024-03-08T05:07:51;4.60;99.90
22130;DHT22;11231;50.746;4.272;2024-03-08T05:10:17;4.60;99.90
22130;DHT22;11231;50.746;4.272;2024-03-08T05:12:44;4.60;99.90
22130;DHT22;11231;50.746;4.272;2024-03-08T05:15:10;4.50;99.90
22130;DHT22;11231;50.746;4.272;2024-03-08T05:17:35;4.50;99.90
22130;DHT22;11231;50.746;4.272;2024-03-08T05:20:02;4.50;99.90
22130;DHT22;11231;50.746;4.272;2024-03-08T05:22:29;4.50;99.90
22130;DHT22;11231;50.746;4.272;2024-03-08T05:24:55;4.50;99.90
22130;DHT22;11231;50.746;4.272;2024-03-08T05:27:21;4.40;99.90
22130;DHT22;11231;50.746;4.272;2024-03-08T05:29:46;4.40;99.90
22130;DHT22;11231;50.746;4.272;2024-03-08T05:32:12;4.40;99.90
22130;DHT22;11231;50.746;4.272;2024-03-08T05:34:38;4.40;99.90
22130;DHT22;11231;50.746;4.272;2024-03-08T05:37:04;4.40;99.90
22130;DHT22;11231;50.746;4.272;2024-03-08T05:39:30;4.40;99.90
22130;DHT22;11231;50.746;4.272;2024-03-08T05:41:55;4.40;99.90
22130;DHT22;11231;50.746;4.272;2024-03-08T05:44:22;4.40;99.90
22130;DHT22;11231;50.746;4.272;2024-03-08T05:46:48;4.40;99.90
22130;DHT22;11231;50.746;4.272;2024-03-08T05:49:14;4.40;99.90
22130;DHT22;11231;50.746;4.272;2024-03-08T05:51:40;4.40;99.90
22130;DHT22;11231;50.746;4.272;2024-03-08T05:54:10;4.40;99.90
22130;DHT22;11231;50.746;4.272;2024-03-08T05:56:37;4.40;99.90
22130;DHT22;11231;50.746;4.272;2024-03-08T05:59:03;4.50;99.90
22130;DHT22;11231;50.746;4.272;2024-03-08T06:01:29;4.40;99.90
22130;DHT22;11231;50.746;4.272;2024-03-08T06:03:56;4.40;99.90
22130;DHT22;11231;50.746;4.272;2024-03-08T06:06:26;4.40;99.90
22130;DHT22;11231;50.746;4.272;2024-03-08T06:08:52;4.30;99.90
22130;DHT22;11231;50.746;4.272;2024-03-08T06:11:20;4.30;99.90
22130;DHT22;11231;50.746;4.272;2024-03-08T06:13:46;4.30;99.90
22130;DHT22;11231;50.746;4.272;2024-03-08T06:16:12;4.30;99.90
22130;DHT22;11231;50.746;4.272;2024-03-08T06:18:38;4.20;99.90
22130;DHT22;11231;50.746;4.272;2024-03-08T06:21:08;4.20;99.90
22130;DHT22;11231;50.746;4.272;2024-03-08T06:23:41;4.20;99.90
22130;DHT22;11231;50.746;4.272;2024-03-08T06:26:07;4.20;99.90
22130;DHT22;11231;50.746;4.272;2024-03-08T06:28:34;4.30;99.90
22130;DHT22;11231;50.746;4.272;2024-03-08T06:31:02;4.30;99.90
22130;DHT22;11231;50.746;4.272;2024-03-08T06:33:29;4.30;99.90
22130;DHT22;11231;50.746;4.272;2024-03-08T06:35:55;4.30;99.90
22130;DHT22;11231;50.746;4.272;2024-03-08T06:38:24;4.30;99.90
22130;DHT22;11231;50.746;4.272;2024-03-08T06:40:51;4.30;99.90
22130;DHT22;11231;50.746;4.272;2024-03-08T06:43:17;4.40;99.90
22130;DHT22;11231;50.746;4.272;2024-03-08T06:45:47;4.40;99.90
22130;DHT22;11231;50.746;4.272;2024-03-08T06:48:19;4.50;99.90
22130;DHT22;11231;50.746;4.272;2024-03-08T06:50:46;4.50;99.90
22130;DHT22;11231;50.746;4.272;2024-03-08T06:53:12;4.50;99.90
22130;DHT22;11231;50.746;4.272;2024-03-08T06:55:39;4.40;99.90
22130;DHT22;11231;50.746;4.272;2024-03-08T06:58:05;4.60;99.90
22130;DHT22;11231;50.746;4.272;2024-03-08T07:00:33;4.80;99.90
22130;DHT22;11231;50.746;4.272;2024-03-08T07:02:59;4.90;99.90
22130;DHT22;11231;50.746;4.272;2024-03-08T07:05:27;4.80;99.90
22130;DHT22;11231;50.746;4.272;2024-03-08T07:07:53;4.80;99.90
22130;DHT22;11231;50.746;4.272;2024-03-08T07:10:23;4.90;99.90
22130;DHT22;11231;50.746;4.272;2024-03-08T07:12:51;4.90;99.90
22130;DHT22;11231;50.746;4.272;2024-03-08T07:15:17;5.30;99.90
22130;DHT22;11231;50.746;4.272;2024-03-08T07:17:48;5.90;99.90
22130;DHT22;11231;50.746;4.272;2024-03-08T07:20:14;6.50;99.90
22130;DHT22;11231;50.746;4.272;2024-03-08T07:22:41;6.80;99.90
22130;DHT22;11231;50.746;4.272;2024-03-08T07:25:08;7.00;99.90
22130;DHT22;11231;50.746;4.272;2024-03-08T07:27:52;7.50;99.90
22130;DHT22;11231;50.746;4.272;2024-03-08T07:30:19;7.80;99.90
22130;DHT22;11231;50.746;4.272;2024-03-08T07:33:05;8.20;99.90
22130;DHT22;11231;50.746;4.272;2024-03-08T07:35:32;8.30;99.90
22130;DHT22;11231;50.746;4.272;2024-03-08T07:37:58;8.60;99.90
22130;DHT22;11231;50.746;4.272;2024-03-08T07:40:25;8.80;99.90
22130;DHT22;11231;50.746;4.272;2024-03-08T07:42:52;9.20;99.90
22130;DHT22;11231;50.746;4.272;2024-03-08T07:45:18;8.70;99.90
22130;DHT22;11231;50.746;4.272;2024-03-08T07:47:44;8.10;99.90
22130;DHT22;11231;50.746;4.272;2024-03-08T07:50:10;8.00;99.90
22130;DHT22;11231;50.746;4.272;2024-03-08T07:52:36;8.30;99.90
22130;DHT22;11231;50.746;4.272;2024-03-08T07:55:02;8.40;99.90
22130;DHT22;11231;50.746;4.272;2024-03-08T07:57:29;9.10;99.90
22130;DHT22;11231;50.746;4.272;2024-03-08T07:59:55;9.80;99.90
22130;DHT22;11231;50.746;4.272;2024-03-08T08:02:21;10.10;99.90
22130;DHT22;11231;50.746;4.272;2024-03-08T08:04:47;9.70;99.90
22130;DHT22;11231;50.746;4.272;2024-03-08T08:07:13;9.60;99.90
22130;DHT22;11231;50.746;4.272;2024-03-08T08:09:40;10.20;99.90
22130;DHT22;11231;50.746;4.272;2024-03-08T08:12:08;10.70;99.90
22130;DHT22;11231;50.746;4.272;2024-03-08T08:14:40;10.40;99.90
22130;DHT22;11231;50.746;4.272;2024-03-08T08:17:06;10.40;99.90
22130;DHT22;11231;50.746;4.272;2024-03-08T08:19:34;10.50;99.90
22130;DHT22;11231;50.746;4.272;2024-03-08T08:22:04;9.70;99.90
22130;DHT22;11231;50.746;4.272;2024-03-08T08:24:30;9.20;99.90
22130;DHT22;11231;50.746;4.272;2024-03-08T08:26:55;8.70;99.90
22130;DHT22;11231;50.746;4.272;2024-03-08T08:29:21;8.40;99.90
22130;DHT22;11231;50.746;4.272;2024-03-08T08:31:48;8.00;99.90
22130;DHT22;11231;50.746;4.272;2024-03-08T08:34:18;7.80;99.90
22130;DHT22;11231;50.746;4.272;2024-03-08T08:36:45;7.60;99.90
22130;DHT22;11231;50.746;4.272;2024-03-08T08:39:11;7.50;99.90
22130;DHT22;11231;50.746;4.272;2024-03-08T08:41:40;7.40;99.90
22130;DHT22;11231;50.746;4.272;2024-03-08T08:44:07;7.30;99.90
22130;DHT22;11231;50.746;4.272;2024-03-08T08:46:36;7.30;99.90
22130;DHT22;11231;50.746;4.272;2024-03-08T08:49:03;7.30;99.90
22130;DHT22;11231;50.746;4.272;2024-03-08T08:51:30;7.30;99.90
22130;DHT22;11231;50.746;4.272;2024-03-08T08:53:59;7.40;99.90
22130;DHT22;11231;50.746;4.272;2024-03-08T08:56:24;7.40;99.90
22130;DHT22;11231;50.746;4.272;2024-03-08T08:58:52;7.40;99.90
22130;DHT22;11231;50.746;4.272;2024-03-08T09:01:19;7.40;99.90
22130;DHT22;11231;50.746;4.272;2024-03-08T09:03:45;7.50;99.90
22130;DHT22;11231;50.746;4.272;2024-03-08T09:06:12;7.70;99.90
22130;DHT22;11231;50.746;4.272;2024-03-08T09:08:42;7.80;99.90
22130;DHT22;11231;50.746;4.272;2024-03-08T09:11:09;7.90;99.90
22130;DHT22;11231;50.746;4.272;2024-03-08T09:13:35;8.00;99.90
22130;DHT22;11231;50.746;4.272;2024-03-08T09:16:02;8.00;99.90
22130;DHT22;11231;50.746;4.272;2024-03-08T09:18:31;7.90;99.90
22130;DHT22;11231;50.746;4.272;2024-03-08T09:20:58;7.70;99.90
22130;DHT22;11231;50.746;4.272;2024-03-08T09:23:25;7.80;99.90
22130;DHT22;11231;50.746;4.272;2024-03-08T09:25:52;7.80;99.90
22130;DHT22;11231;50.746;4.272;2024-03-08T09:28:17;7.80;99.90
22130;DHT22;11231;50.746;4.272;2024-03-08T09:30:56;7.80;99.90
22130;DHT22;11231;50.746;4.272;2024-03-08T09:33:24;7.60;99.90
22130;DHT22;11231;50.746;4.272;2024-03-08T09:35:50;7.70;99.90
22130;DHT22;11231;50.746;4.272;2024-03-08T09:38:16;7.90;99.90
22130;DHT22;11231;50.746;4.272;2024-03-08T09:40:42;8.10;99.90
22130;DHT22;11231;50.746;4.272;2024-03-08T09:43:09;8.20;99.90
22130;DHT22;11231;50.746;4.272;2024-03-08T09:45:37;8.20;99.90
22130;DHT22;11231;50.746;4.272;2024-03-08T09:48:11;8.30;99.90
22130;DHT22;11231;50.746;4.272;2024-03-08T09:50:40;8.30;99.90
22130;DHT22;11231;50.746;4.272;2024-03-08T09:53:11;8.40;99.90
22130;DHT22;11231;50.746;4.272;2024-03-08T09:55:38;8.40;99.90
22130;DHT22;11231;50.746;4.272;2024-03-08T09:58:15;8.60;99.90
22130;DHT22;11231;50.746;4.272;2024-03-08T10:01:06;8.60;99.90
22130;DHT22;11231;50.746;4.272;2024-03-08T10:03:32;8.90;99.90
22130;DHT22;11231;50.746;4.272;2024-03-08T10:05:59;8.90;99.90
22130;DHT22;11231;50.746;4.272;2024-03-08T10:08:29;9.40;99.90
22130;DHT22;11231;50.746;4.272;2024-03-08T10:10:58;10.30;99.90
22130;DHT22;11231;50.746;4.272;2024-03-08T10:13:27;11.30;99.90
22130;DHT22;11231;50.746;4.272;2024-03-08T10:15:53;11.90;99.90
22130;DHT22;11231;50.746;4.272;2024-03-08T10:18:20;12.30;99.90
22130;DHT22;11231;50.746;4.272;2024-03-08T10:21:04;12.70;99.90
22130;DHT22;11231;50.746;4.272;2024-03-08T10:23:36;13.40;99.90
22130;DHT22;11231;50.746;4.272;2024-03-08T10:26:15;14.00;99.90
22130;DHT22;11231;50.746;4.272;2024-03-08T10:28:44;14.00;99.90
22130;DHT22;11231;50.746;4.272;2024-03-08T10:31:10;14.50;99.90
22130;DHT22;11231;50.746;4.272;2024-03-08T10:33:36;15.20;99.90
22130;DHT22;11231;50.746;4.272;2024-03-08T10:36:03;15.60;99.90
22130;DHT22;11231;50.746;4.272;2024-03-08T10:38:31;15.50;99.90
22130;DHT22;11231;50.746;4.272;2024-03-08T10:41:02;15.90;99.90
22130;DHT22;11231;50.746;4.272;2024-03-08T10:43:32;16.00;99.90
22130;DHT22;11231;50.746;4.272;2024-03-08T10:46:29;16.10;99.90
22130;DHT22;11231;50.746;4.272;2024-03-08T10:49:03;15.90;99.90
22130;DHT22;11231;50.746;4.272;2024-03-08T10:51:40;15.30;99.90
22130;DHT22;11231;50.746;4.272;2024-03-08T10:54:07;15.10;99.90
22130;DHT22;11231;50.746;4.272;2024-03-08T10:56:35;15.70;99.90
22130;DHT22;11231;50.746;4.272;2024-03-08T10:59:01;15.80;99.90
22130;DHT22;11231;50.746;4.272;2024-03-08T11:01:30;16.60;99.90
22130;DHT22;11231;50.746;4.272;2024-03-08T11:03:56;17.10;99.90
22130;DHT22;11231;50.746;4.272;2024-03-08T11:06:31;17.60;99.90
22130;DHT22;11231;50.746;4.272;2024-03-08T11:12:26;17.40;99.90
22130;DHT22;11231;50.746;4.272;2024-03-08T11:14:58;17.20;99.90
22130;DHT22;11231;50.746;4.272;2024-03-08T11:19:58;17.40;99.90
22130;DHT22;11231;50.746;4.272;2024-03-08T11:22:28;18.10;99.90
22130;DHT22;11231;50.746;4.272;2024-03-08T11:25:03;18.50;99.90
22130;DHT22;11231;50.746;4.272;2024-03-08T11:27:35;18.50;99.90
22130;DHT22;11231;50.746;4.272;2024-03-08T11:30:06;18.10;99.90
22130;DHT22;11231;50.746;4.272;2024-03-08T11:32:48;18.00;99.90
22130;DHT22;11231;50.746;4.272;2024-03-08T11:35:20;17.80;99.90
22130;DHT22;11231;50.746;4.272;2024-03-08T11:37:46;17.70;99.90
22130;DHT22;11231;50.746;4.272;2024-03-08T11:40:13;17.90;99.90
22130;DHT22;11231;50.746;4.272;2024-03-08T11:42:45;17.80;99.90
22130;DHT22;11231;50.746;4.272;2024-03-08T11:45:13;17.60;99.90
22130;DHT22;11231;50.746;4.272;2024-03-08T11:47:42;17.20;99.90
22130;DHT22;11231;50.746;4.272;2024-03-08T11:50:11;17.30;99.90
22130;DHT22;11231;50.746;4.272;2024-03-08T11:52:37;17.10;99.90
22130;DHT22;11231;50.746;4.272;2024-03-08T11:55:04;16.70;99.90
22130;DHT22;11231;50.746;4.272;2024-03-08T11:57:31;16.50;99.90
22130;DHT22;11231;50.746;4.272;2024-03-08T11:59:58;16.80;99.90
22130;DHT22;11231;50.746;4.272;2024-03-08T12:02:34;16.90;99.90
22130;DHT22;11231;50.746;4.272;2024-03-08T12:05:04;17.10;99.90
22130;DHT22;11231;50.746;4.272;2024-03-08T12:07:30;17.10;99.90
22130;DHT22;11231;50.746;4.272;2024-03-08T12:10:18;17.00;99.90
22130;DHT22;11231;50.746;4.272;2024-03-08T12:12:46;16.90;99.90
22130;DHT22;11231;50.746;4.272;2024-03-08T12:15:14;16.60;99.90
22130;DHT22;11231;50.746;4.272;2024-03-08T12:17:41;16.70;99.90
22130;DHT22;11231;50.746;4.272;2024-03-08T12:20:21;16.30;99.90
22130;DHT22;11231;50.746;4.272;2024-03-08T12:22:48;15.90;99.90
22130;DHT22;11231;50.746;4.272;2024-03-08T12:25:14;16.20;99.90
22130;DHT22;11231;50.746;4.272;2024-03-08T12:27:41;16.60;99.90
22130;DHT22;11231;50.746;4.272;2024-03-08T12:30:25;17.00;99.90
22130;DHT22;11231;50.746;4.272;2024-03-08T12:32:57;16.70;99.90
22130;DHT22;11231;50.746;4.272;2024-03-08T12:35:24;16.40;99.90
22130;DHT22;11231;50.746;4.272;2024-03-08T12:37:53;16.30;99.90
22130;DHT22;11231;50.746;4.272;2024-03-08T12:40:26;16.70;99.90
22130;DHT22;11231;50.746;4.272;2024-03-08T12:42:52;16.80;99.90
22130;DHT22;11231;50.746;4.272;2024-03-08T12:45:18;16.60;99.90
22130;DHT22;11231;50.746;4.272;2024-03-08T12:47:43;16.40;99.90
22130;DHT22;11231;50.746;4.272;2024-03-08T12:50:10;16.20;99.90
22130;DHT22;11231;50.746;4.272;2024-03-08T12:52:36;16.30;99.90
22130;DHT22;11231;50.746;4.272;2024-03-08T12:55:02;16.30;99.90
22130;DHT22;11231;50.746;4.272;2024-03-08T12:57:28;16.40;99.90
22130;DHT22;11231;50.746;4.272;2024-03-08T12:59:54;16.10;99.90
22130;DHT22;11231;50.746;4.272;2024-03-08T13:02:21;16.10;99.90
22130;DHT22;11231;50.746;4.272;2024-03-08T13:04:49;16.00;99.90
22130;DHT22;11231;50.746;4.272;2024-03-08T13:07:21;16.20;99.90
22130;DHT22;11231;50.746;4.272;2024-03-08T13:09:49;16.50;99.90
22130;DHT22;11231;50.746;4.272;2024-03-08T13:12:14;16.40;99.90
22130;DHT22;11231;50.746;4.272;2024-03-08T13:14:41;16.50;99.90
22130;DHT22;11231;50.746;4.272;2024-03-08T13:17:06;16.20;99.90
22130;DHT22;11231;50.746;4.272;2024-03-08T13:19:36;15.90;99.90
22130;DHT22;11231;50.746;4.272;2024-03-08T13:22:04;15.30;99.90
22130;DHT22;11231;50.746;4.272;2024-03-08T13:24:30;15.20;99.90
22130;DHT22;11231;50.746;4.272;2024-03-08T13:26:56;14.70;99.90
22130;DHT22;11231;50.746;4.272;2024-03-08T13:29:23;14.40;99.90
22130;DHT22;11231;50.746;4.272;2024-03-08T13:31:49;13.90;99.90
22130;DHT22;11231;50.746;4.272;2024-03-08T13:34:20;13.70;99.90
22130;DHT22;11231;50.746;4.272;2024-03-08T13:36:53;13.70;99.90
22130;DHT22;11231;50.746;4.272;2024-03-08T13:39:25;13.70;99.90
22130;DHT22;11231;50.746;4.272;2024-03-08T13:41:51;13.50;99.90
22130;DHT22;11231;50.746;4.272;2024-03-08T13:44:17;13.30;99.90
22130;DHT22;11231;50.746;4.272;2024-03-08T13:46:43;13.30;99.90
22130;DHT22;11231;50.746;4.272;2024-03-08T13:49:09;13.30;99.90
22130;DHT22;11231;50.746;4.272;2024-03-08T13:51:36;13.30;99.90
22130;DHT22;11231;50.746;4.272;2024-03-08T13:54:02;13.30;99.90
22130;DHT22;11231;50.746;4.272;2024-03-08T13:56:32;13.30;99.90
22130;DHT22;11231;50.746;4.272;2024-03-08T13:58:57;13.40;99.90
22130;DHT22;11231;50.746;4.272;2024-03-08T14:01:23;13.60;99.90
22130;DHT22;11231;50.746;4.272;2024-03-08T14:03:49;13.60;99.90
22130;DHT22;11231;50.746;4.272;2024-03-08T14:06:16;13.50;99.90
22130;DHT22;11231;50.746;4.272;2024-03-08T14:08:42;13.70;99.90
22130;DHT22;11231;50.746;4.272;2024-03-08T14:11:07;13.80;99.90
22130;DHT22;11231;50.746;4.272;2024-03-08T14:13:43;13.80;99.90
22130;DHT22;11231;50.746;4.272;2024-03-08T14:16:13;13.70;99.90
22130;DHT22;11231;50.746;4.272;2024-03-08T14:18:39;13.70;99.90
22130;DHT22;11231;50.746;4.272;2024-03-08T14:21:05;13.80;99.90
22130;DHT22;11231;50.746;4.272;2024-03-08T14:23:33;13.90;99.90
22130;DHT22;11231;50.746;4.272;2024-03-08T14:25:59;13.90;99.90
22130;DHT22;11231;50.746;4.272;2024-03-08T14:28:25;13.80;99.90
22130;DHT22;11231;50.746;4.272;2024-03-08T14:30:53;13.80;99.90
22130;DHT22;11231;50.746;4.272;2024-03-08T14:33:19;13.80;99.90
22130;DHT22;11231;50.746;4.272;2024-03-08T14:35:45;13.90;99.90
22130;DHT22;11231;50.746;4.272;2024-03-08T14:38:13;14.00;99.90
22130;DHT22;11231;50.746;4.272;2024-03-08T14:40:39;14.20;99.90
22130;DHT22;11231;50.746;4.272;2024-03-08T14:43:05;14.10;99.90
22130;DHT22;11231;50.746;4.272;2024-03-08T14:45:31;14.10;99.90
22130;DHT22;11231;50.746;4.272;2024-03-08T14:47:57;14.10;99.90
22130;DHT22;11231;50.746;4.272;2024-03-08T14:50:24;14.10;99.90
22130;DHT22;11231;50.746;4.272;2024-03-08T14:52:53;14.20;99.90
22130;DHT22;11231;50.746;4.272;2024-03-08T14:55:20;14.40;99.90
22130;DHT22;11231;50.746;4.272;2024-03-08T14:57:48;14.40;99.90
22130;DHT22;11231;50.746;4.272;2024-03-08T15:00:17;14.30;99.90
22130;DHT22;11231;50.746;4.272;2024-03-08T15:02:59;14.40;99.90
22130;DHT22;11231;50.746;4.272;2024-03-08T15:05:25;14.50;99.90
22130;DHT22;11231;50.746;4.272;2024-03-08T15:07:54;14.50;99.90
22130;DHT22;11231;50.746;4.272;2024-03-08T15:10:20;14.40;99.90
22130;DHT22;11231;50.746;4.272;2024-03-08T15:12:49;14.40;99.90
22130;DHT22;11231;50.746;4.272;2024-03-08T15:15:18;14.40;99.90
22130;DHT22;11231;50.746;4.272;2024-03-08T15:17:46;14.40;99.90
22130;DHT22;11231;50.746;4.272;2024-03-08T15:20:13;14.50;99.90
22130;DHT22;11231;50.746;4.272;2024-03-08T15:22:47;14.60;99.90
22130;DHT22;11231;50.746;4.272;2024-03-08T15:25:13;14.60;99.90
22130;DHT22;11231;50.746;4.272;2024-03-08T15:27:46;14.50;99.90
22130;DHT22;11231;50.746;4.272;2024-03-08T15:30:12;14.50;99.90
22130;DHT22;11231;50.746;4.272;2024-03-08T15:32:43;14.40;99.90
22130;DHT22;11231;50.746;4.272;2024-03-08T15:35:09;14.30;99.90
22130;DHT22;11231;50.746;4.272;2024-03-08T15:37:40;14.30;99.90
22130;DHT22;11231;50.746;4.272;2024-03-08T15:40:12;14.20;99.90
22130;DHT22;11231;50.746;4.272;2024-03-08T15:42:54;14.20;99.90
22130;DHT22;11231;50.746;4.272;2024-03-08T15:45:21;14.20;99.90
22130;DHT22;11231;50.746;4.272;2024-03-08T15:47:49;14.20;99.90
22130;DHT22;11231;50.746;4.272;2024-03-08T15:50:15;14.30;99.90